Latest Weather Observations for Kununurra Airport

IDD60801

Issued at 10:01 am CST Tuesday 26 July 2016 (issued every 30 minutes, with the page automatically refreshed every 10 minutes)

About weather observations | Map of weather stations | Latest weather observations for NT | Other Formats
Station Details ID: 002056 Name: KUNUNURRA AERO Lat: -15.78 Lon: 128.71 Height: 44.0 m
Data from the previous 72 hours. | See also: Recent months at Kununurra Airport
Date/Time
CST
Temp
°C
App
Temp
°C
Dew
Point
°C
Rel
Hum
%
Delta-T
°C
Wind Press
QNH
hPa
Press
MSL
hPa
Rain since
9am
mm
Dir  Spd
km/h
Gust
km/h
Spd
kts
Gust
kts
26/10:00am 27.0 22.8 8.4 31 10.1 ESE 20 28 11 15 1016.6 1016.5 0.0
26/09:30am 26.1 24.9 10.3 37 8.8 S 7 15 4 8 1016.5 1016.4 0.0
26/09:00am 24.9 22.6 10.4 40 8.1 S 13 17 7 9 1016.0 1015.9 0.0
26/08:30am 23.9 20.7 9.9 41 7.7 S 17 20 9 11 1015.7 1015.6 0.0
26/08:00am 22.4 20.0 10.2 46 6.7 S 13 15 7 8 1015.7 1015.6 0.0
26/07:30am 18.5 16.8 9.8 57 4.6 S 9 13 5 7 1015.4 1015.3 0.0
26/07:22am 21.4 19.4 10.3 49 6.0 SSE 11 13 6 7 1015.2 1015.1 0.0
26/07:00am 16.4 14.7 10.0 66 3.4 SSW 9 13 5 7 1015.0 1014.9 0.0
26/06:30am 16.5 16.5 11.2 71 2.9 NW 2 9 1 5 1014.7 1014.6 0.0
26/06:00am 17.8 17.9 10.2 61 4.0 CALM 0 0 0 0 1014.4 1014.3 0.0
26/05:30am 19.3 18.0 9.8 54 5.1 SSE 7 11 4 6 1014.2 1014.1 0.0
26/05:00am 23.6 21.9 8.5 38 8.1 S 7 11 4 6 1013.9 1013.8 0.0
26/04:30am 19.5 17.6 9.1 51 5.5 NW 9 11 5 6 1013.9 1013.8 0.0
26/04:21am 21.1 18.6 8.4 44 6.7 E 11 17 6 9 1013.8 1013.7 0.0
26/04:00am 26.3 22.6 7.8 31 9.9 SE 17 22 9 12 1013.6 1013.5 0.0
26/03:30am 22.0 19.3 8.9 43 7.0 ESE 13 17 7 9 1013.6 1013.5 0.0
26/03:00am 19.8 19.0 11.8 60 4.4 SSE 7 11 4 6 1013.7 1013.6 0.0
26/02:30am 18.2 17.7 12.2 68 3.3 S 6 9 3 5 1013.7 1013.6 0.0
26/02:00am 18.0 17.8 12.9 72 2.9 S 6 9 3 5 1013.7 1013.6 0.0
26/01:30am 18.3 18.3 12.3 68 3.3 SE 4 7 2 4 1013.8 1013.7 0.0
26/01:00am 19.3 19.0 12.8 66 3.7 SE 6 7 3 4 1013.7 1013.6 0.0
26/12:30am 19.0 18.6 13.0 68 3.4 SE 7 7 4 4 1013.6 1013.5 0.0
26/12:00am 19.1 18.9 11.7 62 4.1 S 4 6 2 3 1013.6 1013.5 0.0
 
Date/Time
CST
Temp
°C
App
Temp
°C
Dew
Point
°C
Rel
Hum
%
Delta-T
°C
Wind Press
QNH
hPa
Press
MSL
hPa
Rain since
9am
mm
Dir  Spd
km/h
Gust
km/h
Spd
kts
Gust
kts
25/11:30pm 20.0 20.1 11.5 58 4.7 SW 2 6 1 3 1013.7 1013.6 0.0
25/11:00pm 19.4 18.6 11.2 59 4.5 SE 6 9 3 5 1013.7 1013.6 0.0
25/10:30pm 20.1 21.0 12.8 63 4.1 CALM 0 0 0 0 1013.6 1013.5 0.0
25/10:00pm 20.4 21.0 11.9 58 4.7 CALM 0 0 0 0 1013.5 1013.4 0.0
25/09:30pm 21.1 21.6 11.7 55 5.2 CALM 0 0 0 0 1013.4 1013.3 0.0
25/09:00pm 22.4 23.5 13.5 57 5.2 CALM 0 0 0 0 1013.4 1013.3 0.0
25/08:30pm 23.4 24.5 13.6 54 5.7 CALM 0 0 0 0 1012.9 1012.8 0.0
25/08:00pm 25.3 25.4 13.8 49 6.8 SE 6 7 3 4 1012.5 1012.4 0.0
25/07:30pm 27.2 25.9 10.0 34 9.6 SSE 7 11 4 6 1012.1 1012.0 0.0
25/07:00pm 29.6 28.0 10.2 30 11.0 SSE 9 11 5 6 1011.8 1011.7 0.0
25/06:30pm 31.5 30.0 8.5 24 12.8 SE 6 7 3 4 1011.4 1011.2 0.0
25/06:00pm 33.1 31.1 8.5 22 13.8 SSE 9 13 5 7 1011.2 1011.0 0.0
25/05:30pm 34.0 31.4 7.9 20 14.6 SE 11 15 6 8 1011.0 1010.8 0.0
25/05:00pm 34.4 31.7 7.5 19 14.9 SE 11 17 6 9 1010.9 1010.7 0.0
25/04:30pm 34.4 30.6 7.5 19 15.0 ESE 17 22 9 12 1010.8 1010.6 0.0
25/04:00pm 34.5 30.9 8.3 20 14.7 SSE 17 26 9 14 1010.8 1010.6 0.0
25/03:30pm 34.9 31.4 8.6 20 14.9 E 17 24 9 13 1011.0 1010.8 0.0
25/03:00pm 34.6 31.0 8.4 20 14.8 SE 17 28 9 15 1011.4 1011.2 0.0
25/02:30pm 34.6 31.0 8.4 20 14.8 ESE 17 26 9 14 1011.9 1011.8 0.0
25/02:00pm 34.6 31.0 8.4 20 14.8 ESE 17 30 9 16 1012.4 1012.3 0.0
25/01:30pm 34.2 30.7 8.8 21 14.4 ESE 17 26 9 14 1012.8 1012.7 0.0
25/01:00pm 34.6 31.2 9.1 21 14.5 ESE 17 24 9 13 1013.3 1013.2 0.0
25/12:30pm 33.7 30.4 9.7 23 13.8 SE 17 24 9 13 1014.0 1013.9 0.0
25/12:00pm 33.0 29.4 9.7 24 13.3 SE 19 28 10 15 1014.6 1014.5 0.0
25/11:30am 32.3 26.8 9.2 24 13.0 E 28 35 15 19 1014.9 1014.8 0.0
25/11:00am 31.7 26.9 8.7 24 12.9 ESE 24 30 13 16 1015.2 1015.1 0.0
25/10:30am 31.3 27.3 8.3 24 12.7 ESE 19 24 10 13 1015.5 1015.4 0.0
25/10:00am 29.7 26.9 8.7 27 11.6 SE 13 22 7 12 1015.4 1015.3 0.0
25/09:30am 27.2 25.8 10.8 36 9.3 SSE 9 15 5 8 1015.2 1015.1 0.0
25/09:00am 25.8 25.0 11.6 41 8.1 SSE 7 9 4 5 1015.2 1015.1 0.0
25/08:30am 21.5 22.3 12.4 56 5.1 CALM 0 0 0 0 1015.0 1014.9 0.0
25/08:00am 17.9 18.5 13.0 73 2.8 NE 2 6 1 3 1014.9 1014.8 0.0
25/07:30am 16.5 17.5 13.2 81 1.8 CALM 0 6 0 3 1014.5 1014.4 0.0
25/07:00am 16.9 17.8 12.8 77 2.3 CALM 0 0 0 0 1014.0 1013.9 0.0
25/06:30am 17.8 18.6 12.5 71 2.9 CALM 0 0 0 0 1013.6 1013.5 0.0
25/06:00am 18.3 17.5 11.6 65 3.7 SSW 7 9 4 5 1013.2 1013.1 0.0
25/05:30am 19.4 18.4 10.9 58 4.6 SSW 7 11 4 6 1013.0 1012.9 0.0
25/05:00am 22.0 20.4 10.2 47 6.4 S 9 11 5 6 1012.8 1012.7 0.0
25/04:30am 20.7 19.7 12.4 59 4.7 SSE 9 11 5 6 1012.5 1012.4 0.0
25/04:00am 20.6 20.4 13.6 64 4.0 S 7 11 4 6 1012.5 1012.4 0.0
25/03:30am 20.2 20.7 14.1 68 3.5 SSE 4 7 2 4 1012.7 1012.6 0.0
25/03:00am 19.4 20.1 14.4 73 2.9 SSW 4 7 2 4 1012.8 1012.7 0.0
25/02:30am 19.6 21.1 14.6 73 2.9 CALM 0 0 0 0 1012.9 1012.8 0.0
25/02:00am 21.2 21.9 16.0 72 3.1 ESE 7 9 4 5 1013.1 1013.0 0.0
25/01:30am 20.4 22.1 15.2 72 3.1 CALM 0 0 0 0 1013.0 1012.9 0.0
25/01:00am 20.2 21.9 15.2 73 3.0 CALM 0 0 0 0 1013.0 1012.9 0.0
25/12:30am 20.4 21.5 13.6 65 3.9 CALM 0 0 0 0 1013.2 1013.1 0.0
25/12:00am 20.5 21.3 13.7 65 3.9 ESE 2 6 1 3 1013.4 1013.3 0.0
 
Date/Time
CST
Temp
°C
App
Temp
°C
Dew
Point
°C
Rel
Hum
%
Delta-T
°C
Wind Press
QNH
hPa
Press
MSL
hPa
Rain since
9am
mm
Dir  Spd
km/h
Gust
km/h
Spd
kts
Gust
kts
24/11:30pm 21.0 22.1 13.4 62 4.4 CALM 0 0 0 0 1013.5 1013.4 0.0
24/11:00pm 21.2 21.2 13.6 62 4.4 ESE 6 7 3 4 1013.4 1013.3 0.0
24/10:30pm 21.2 22.3 13.4 61 4.5 CALM 0 0 0 0 1013.4 1013.3 0.0
24/10:00pm 22.4 23.0 14.3 60 4.8 E 4 7 2 4 1013.3 1013.2 0.0
24/09:30pm 22.9 24.3 15.5 63 4.4 E 2 7 1 4 1013.2 1013.1 0.0
24/09:00pm 23.8 24.5 14.5 56 5.5 SE 4 7 2 4 1012.9 1012.8 0.0
24/08:30pm 25.0 25.9 15.0 53 6.0 SE 4 7 2 4 1012.5 1012.4 0.0
24/08:00pm 28.9 27.8 13.2 38 9.3 SE 11 13 6 7 1012.0 1011.9 0.0
24/07:30pm 26.6 27.7 17.1 56 5.9 E 7 9 4 5 1011.5 1011.3 0.0
24/07:00pm 28.4 29.5 14.6 43 8.3 E 2 6 1 3 1011.2 1011.0 0.0
24/06:30pm 31.7 30.1 11.5 29 11.8 ESE 11 13 6 7 1010.8 1010.6 0.0
24/06:00pm 33.6 31.6 11.5 26 13.0 ESE 13 17 7 9 1010.5 1010.3 0.0
24/05:30pm 34.7 32.8 11.8 25 13.6 SSE 13 17 7 9 1010.2 1010.0 0.0
24/05:00pm 35.4 33.9 10.4 22 14.6 E 9 15 5 8 1010.1 1009.9 0.0
24/04:30pm 35.3 32.4 9.7 21 14.8 ESE 15 26 8 14 1010.0 1009.8 0.0
24/04:00pm 35.3 32.2 10.4 22 14.5 SE 17 26 9 14 1010.0 1009.8 0.0
24/03:30pm 35.5 33.8 11.2 23 14.4 SE 11 19 6 10 1010.2 1010.0 0.0
24/03:00pm 35.8 33.2 10.8 22 14.7 E 15 20 8 11 1010.5 1010.3 0.0
24/02:30pm 35.8 33.4 11.4 23 14.5 E 15 24 8 13 1011.0 1010.8 0.0
24/02:00pm 35.0 30.9 11.4 24 14.0 SE 24 32 13 17 1011.6 1011.4 0.0
24/01:30pm 34.2 30.8 10.7 24 13.7 SSE 19 24 10 13 1012.3 1012.2 0.0
24/01:00pm 33.7 30.9 11.5 26 13.1 S 17 24 9 13 1013.0 1012.9 0.0
24/12:30pm 34.0 31.3 11.8 26 13.2 SSE 17 20 9 11 1013.6 1013.5 0.0
24/12:00pm 32.6 29.8 11.2 27 12.5 SE 17 24 9 13 1014.0 1013.9 0.0
24/11:30am 32.4 29.1 11.0 27 12.4 SE 19 24 10 13 1014.4 1014.3 0.0
24/11:00am 31.7 29.3 11.5 29 11.8 SE 15 20 8 11 1014.6 1014.5 0.0
24/10:30am 31.3 27.9 11.1 29 11.7 ESE 20 28 11 15 1014.6 1014.5 0.0
24/10:00am 29.1 28.4 13.3 37 9.4 SSE 9 13 5 7 1014.7 1014.6 0.0
24/09:30am 27.3 26.5 12.9 41 8.4 S 9 11 5 6 1014.5 1014.4 0.0
24/09:00am 24.7 26.1 15.3 56 5.7 SW 2 6 1 3 1014.3 1014.2 0.0
24/08:30am 21.7 23.4 15.1 66 3.9 CALM 0 0 0 0 1014.1 1014.0 0.0
24/08:00am 18.3 20.1 15.4 83 1.7 CALM 0 0 0 0 1013.8 1013.7 0.0
24/07:30am 16.5 16.9 13.8 84 1.5 ENE 4 6 2 3 1013.6 1013.5 0.0
24/07:00am 16.9 18.3 14.5 86 1.4 CALM 0 4 0 2 1013.1 1013.0 0.0
24/06:30am 18.1 18.3 14.6 80 2.0 S 7 7 4 4 1012.8 1012.7 0.0
24/06:00am 17.3 18.1 14.9 86 1.4 S 4 6 2 3 1012.5 1012.4 0.0
24/05:30am 17.5 17.7 14.2 81 1.9 S 6 7 3 4 1012.3 1012.2 0.0
24/05:00am 17.7 19.3 14.8 83 1.7 CALM 0 0 0 0 1012.2 1012.1 0.0
24/04:30am 18.5 20.3 15.4 82 1.8 CALM 0 0 0 0 1012.0 1011.9 0.0
24/04:00am 18.3 19.9 14.8 80 2.0 CALM 0 0 0 0 1011.9 1011.8 0.0
24/03:30am 18.6 20.0 14.5 77 2.4 CALM 0 0 0 0 1012.0 1011.9 0.0
24/03:00am 18.4 19.8 14.5 78 2.3 CALM 0 0 0 0 1012.0 1011.9 0.0
24/02:30am 17.9 18.9 13.2 74 2.7 CALM 0 0 0 0 1012.0 1011.9 0.0
24/02:00am 18.7 20.3 15.0 79 2.2 CALM 0 0 0 0 1012.2 1012.1 0.0
24/01:30am 18.6 19.8 14.9 79 2.2 NE 2 7 1 4 1012.2 1012.1 0.0
24/01:00am 19.9 20.8 14.0 69 3.4 WNW 2 7 1 4 1012.3 1012.2 0.0
24/12:30am 19.6 19.6 14.2 71 3.1 N 7 11 4 6 1012.1 1012.0 0.0
24/12:00am 19.5 20.9 14.3 72 3.0 CALM 0 7 0 4 1012.0 1011.9 0.0
 
Date/Time
CST
Temp
°C
App
Temp
°C
Dew
Point
°C
Rel
Hum
%
Delta-T
°C
Wind Press
QNH
hPa
Press
MSL
hPa
Rain since
9am
mm
Dir  Spd
km/h
Gust
km/h
Spd
kts
Gust
kts
23/11:30pm 20.3 21.6 14.2 68 3.5 CALM 0 0 0 0 1012.1 1012.0 0.0
23/11:00pm 20.5 21.4 15.1 71 3.2 SE 4 7 2 4 1012.0 1011.9 0.0
23/10:30pm 21.4 22.3 16.1 72 3.2 SSE 6 7 3 4 1011.9 1011.8 0.0
23/10:00pm 21.6 23.4 15.4 68 3.7 CALM 0 0 0 0 1011.7 1011.5 0.0
23/09:30pm 22.5 24.4 15.8 66 4.0 CALM 0 0 0 0 1011.4 1011.2 0.0
23/09:00pm 23.3 24.3 14.3 57 5.3 SE 2 6 1 3 1011.2 1011.0 0.0
23/08:30pm 23.9 24.5 15.9 61 4.9 ESE 7 7 4 4 1011.0 1010.8 0.0
23/08:00pm 25.0 25.9 16.2 58 5.4 SE 6 7 3 4 1010.7 1010.5 0.0
23/07:30pm 29.2 28.7 12.6 36 9.8 S 7 9 4 5 1010.4 1010.2 0.0
23/07:00pm 30.2 29.4 13.0 34 10.2 S 9 13 5 7 1010.2 1010.0 0.0
23/06:30pm 31.9 32.3 15.4 37 10.2 SE 7 11 4 6 1009.8 1009.6 0.0
23/06:00pm 33.8 33.2 12.2 27 12.9 SSE 7 11 4 6 1009.8 1009.6 0.0
23/05:30pm 34.5 32.4 11.0 24 13.8 ESE 13 19 7 10 1009.7 1009.5 0.0
23/05:00pm 34.8 33.3 10.6 23 14.1 ESE 9 13 5 7 1009.5 1009.3 0.0
23/04:30pm 34.9 32.5 10.0 22 14.4 SE 13 19 7 10 1009.7 1009.5 0.0
23/04:00pm 35.1 32.2 10.9 23 14.2 SE 17 22 9 12 1009.8 1009.6 0.0
23/03:30pm 34.9 32.7 10.7 23 14.2 E 13 19 7 10 1010.2 1010.0 0.0
23/03:00pm 34.8 32.2 10.6 23 14.1 ENE 15 26 8 14 1010.6 1010.4 0.0
23/02:30pm 34.5 31.8 11.6 25 13.6 SE 17 22 9 12 1011.1 1010.9 0.0
23/02:00pm 33.8 32.2 11.6 26 13.1 ESE 11 17 6 9 1011.8 1011.7 0.0
23/01:30pm 34.2 32.1 12.5 27 13.0 ESE 15 22 8 12 1012.3 1012.2 0.0
23/01:00pm 33.9 31.4 12.3 27 12.9 SE 17 20 9 11 1012.7 1012.6 0.0
23/12:30pm 32.7 30.6 11.3 27 12.5 SE 13 20 7 11 1013.4 1013.3 0.0
23/12:00pm 32.1 29.1 11.8 29 11.9 ESE 19 28 10 15 1013.9 1013.8 0.0

Other Formats:

Comma delimited format used in spreadsheet applications
http://www.bom.gov.au/fwo/IDD60801/IDD60801.94216.axf

JavaScript Object Notation format (JSON) in row-major order
http://www.bom.gov.au/fwo/IDD60801/IDD60801.94216.json